Wetterdaten: Woche 21.08.17 - 27.08.17 (KW34)
Datum Zeit Temp. I. Temp. A. Feuchte I. Feuchte A. Luftdruck Regen Wind Richtung Sonnenschein UV Solar Taupunkt Windchill Windben
21.08.2017 00:00 23,8 C 11,0 C 56 % 86 % 1023,2 hPa 0,0 l/m 0,0 km/h (0 Bft) N 0,00 h 0,0 UV-I 0 W/m 8,8 C 11,0 C 0,0 km/h (0 Bft)
21.08.2017 01:00 23,8 C 10,3 C 56 % 88 % 1023,1 hPa 0,0 l/m 0,0 km/h (0 Bft) N 0,00 h 0,0 UV-I 0 W/m 8,4 C 10,3 C 0,0 km/h (0 Bft)
21.08.2017 02:00 23,8 C 9,8 C 57 % 90 % 1023,1 hPa 0,0 l/m 0,0 km/h (0 Bft) N 0,00 h 0,0 UV-I 0 W/m 8,3 C 9,8 C 0,0 km/h (0 Bft)
21.08.2017 03:00 23,8 C 9,6 C 57 % 91 % 1023,2 hPa 0,0 l/m 0,0 km/h (0 Bft) N 0,00 h 0,0 UV-I 0 W/m 8,2 C 9,6 C 0,0 km/h (0 Bft)
21.08.2017 04:00 23,2 C 9,2 C 56 % 90 % 1023,1 hPa 0,0 l/m 0,0 km/h (0 Bft) N 0,00 h 0,0 UV-I 0 W/m 7,6 C 9,2 C 0,0 km/h (0 Bft)
21.08.2017 05:00 22,5 C 8,2 C 57 % 90 % 1023,0 hPa 0,0 l/m 0,0 km/h (0 Bft) N 0,00 h 0,0 UV-I 0 W/m 6,7 C 8,2 C 0,0 km/h (0 Bft)
21.08.2017 06:00 23,0 C 7,6 C 56 % 92 % 1023,2 hPa 0,0 l/m 0,0 km/h (0 Bft) N 0,00 h 0,0 UV-I 22 W/m 6,4 C 7,6 C 0,0 km/h (0 Bft)
21.08.2017 07:00 23,1 C 8,6 C 55 % 93 % 1023,5 hPa 0,0 l/m 0,0 km/h (0 Bft) N 0,30 h 0,5 UV-I 123 W/m 7,6 C 8,6 C 0,1 km/h (0 Bft)
21.08.2017 08:00 22,9 C 11,5 C 55 % 87 % 1023,6 hPa 0,0 l/m 0,0 km/h (0 Bft) N 1,00 h 0,8 UV-I 282 W/m 9,3 C 11,5 C 0,0 km/h (0 Bft)
21.08.2017 09:00 22,6 C 14,1 C 55 % 80 % 1023,4 hPa 0,0 l/m 0,2 km/h (0 Bft) W 1,00 h 1,6 UV-I 451 W/m 10,7 C 14,1 C 0,6 km/h (0 Bft)
21.08.2017 10:00 23,3 C 16,0 C 53 % 72 % 1023,4 hPa 0,0 l/m 1,8 km/h (1 Bft) W-SW 0,98 h 2,0 UV-I 439 W/m 10,9 C 16,0 C 4,4 km/h (1 Bft)
21.08.2017 11:00 23,4 C 16,0 C 51 % 68 % 1023,3 hPa 0,0 l/m 4,0 km/h (1 Bft) W-NW 0,67 h 1,9 UV-I 303 W/m 10,0 C 15,9 C 8,4 km/h (2 Bft)
21.08.2017 12:00 23,2 C 17,8 C 47 % 59 % 1023,2 hPa 0,0 l/m 3,9 km/h (1 Bft) W-NW 1,00 h 3,2 UV-I 563 W/m 9,6 C 17,5 C 8,8 km/h (2 Bft)
21.08.2017 13:00 22,7 C 17,7 C 46 % 56 % 1023,1 hPa 0,0 l/m 3,8 km/h (1 Bft) W-NW 1,00 h 3,1 UV-I 486 W/m 8,9 C 17,6 C 9,0 km/h (2 Bft)
21.08.2017 14:00 22,6 C 17,7 C 46 % 57 % 1022,8 hPa 0,0 l/m 3,7 km/h (1 Bft) W 1,00 h 2,3 UV-I 339 W/m 9,2 C 17,5 C 8,2 km/h (2 Bft)
21.08.2017 15:00 22,7 C 18,8 C 46 % 54 % 1022,3 hPa 0,0 l/m 4,3 km/h (1 Bft) W-SW 1,00 h 2,8 UV-I 511 W/m 9,3 C 18,5 C 9,5 km/h (2 Bft)
21.08.2017 16:00 22,6 C 18,1 C 44 % 53 % 1021,9 hPa 0,0 l/m 2,5 km/h (1 Bft) W-SW 0,65 h 1,6 UV-I 248 W/m 8,5 C 18,0 C 5,7 km/h (1 Bft)
21.08.2017 17:00 22,3 C 18,4 C 44 % 54 % 1021,8 hPa 0,0 l/m 3,9 km/h (1 Bft) W-SW 0,68 h 1,2 UV-I 264 W/m 9,0 C 18,3 C 8,9 km/h (2 Bft)
21.08.2017 18:00 22,0 C 17,8 C 44 % 54 % 1021,9 hPa 0,0 l/m 4,2 km/h (1 Bft) W-SW 0,37 h 0,6 UV-I 130 W/m 8,5 C 17,7 C 9,4 km/h (2 Bft)
21.08.2017 19:00 22,3 C 16,5 C 47 % 60 % 1021,8 hPa 0,0 l/m 0,5 km/h (0 Bft) W 0,00 h 0,0 UV-I 31 W/m 8,6 C 16,5 C 1,9 km/h (1 Bft)
21.08.2017 20:00 23,1 C 14,2 C 49 % 72 % 1022,2 hPa 0,0 l/m 0,0 km/h (0 Bft) N 0,00 h 0,0 UV-I 6 W/m 9,2 C 14,2 C 0,0 km/h (0 Bft)
21.08.2017 21:00 23,3 C 11,8 C 49 % 84 % 1022,9 hPa 0,0 l/m 0,0 km/h (0 Bft) N 0,00 h 0,0 UV-I 0 W/m 9,2 C 11,8 C 0,0 km/h (0 Bft)
21.08.2017 22:00 23,3 C 10,6 C 50 % 88 % 1023,1 hPa 0,0 l/m 0,0 km/h (0 Bft) N 0,00 h 0,0 UV-I 0 W/m 8,8 C 10,6 C 0,0 km/h (0 Bft)
21.08.2017 23:00 23,4 C 9,4 C 52 % 91 % 1023,0 hPa 0,0 l/m 0,0 km/h (0 Bft) N 0,00 h 0,0 UV-I 0 W/m 8,1 C 9,4 C 0,0 km/h (0 Bft)
22.08.2017 00:00 23,3 C 8,7 C 53 % 93 % 1022,9 hPa 0,0 l/m 0,0 km/h (0 Bft) N 0,00 h 0,0 UV-I 0 W/m 7,6 C 8,7 C 0,0 km/h (0 Bft)
22.08.2017 01:00 23,4 C 7,9 C 54 % 93 % 1022,9 hPa 0,0 l/m 0,0 km/h (0 Bft) N 0,00 h 0,0 UV-I 0 W/m 6,9 C 7,9 C 0,0 km/h (0 Bft)
22.08.2017 02:00 23,4 C 7,0 C 54 % 94 % 1022,7 hPa 0,0 l/m 0,0 km/h (0 Bft) N 0,00 h 0,0 UV-I 0 W/m 6,2 C 7,0 C 0,0 km/h (0 Bft)
22.08.2017 03:00 23,3 C 7,2 C 55 % 95 % 1022,8 hPa 0,0 l/m 0,0 km/h (0 Bft) N 0,00 h 0,0 UV-I 0 W/m 6,5 C 7,2 C 0,0 km/h (0 Bft)
22.08.2017 04:00 23,3 C 7,6 C 56 % 95 % 1022,6 hPa 0,0 l/m 0,0 km/h (0 Bft) N 0,00 h 0,0 UV-I 0 W/m 6,8 C 7,6 C 0,0 km/h (0 Bft)
22.08.2017 05:00 23,2 C 7,4 C 56 % 95 % 1022,4 hPa 0,0 l/m 0,0 km/h (0 Bft) N 0,00 h 0,0 UV-I 0 W/m 6,6 C 7,4 C 0,0 km/h (0 Bft)
22.08.2017 06:00 23,1 C 7,3 C 56 % 95 % 1022,6 hPa 0,0 l/m 0,0 km/h (0 Bft) N 0,00 h 0,0 UV-I 17 W/m 6,6 C 7,3 C 0,0 km/h (0 Bft)
22.08.2017 07:00 23,0 C 7,9 C 56 % 95 % 1022,6 hPa 0,0 l/m 0,0 km/h (0 Bft) N 0,27 h 0,5 UV-I 105 W/m 7,1 C 7,9 C 0,0 km/h (0 Bft)
22.08.2017 08:00 23,0 C 10,9 C 55 % 90 % 1022,4 hPa 0,0 l/m 0,0 km/h (0 Bft) N 0,98 h 0,8 UV-I 281 W/m 9,3 C 10,9 C 0,0 km/h (0 Bft)
22.08.2017 09:00 23,1 C 13,9 C 54 % 81 % 1022,2 hPa 0,0 l/m 0,0 km/h (0 Bft) N 1,00 h 1,6 UV-I 373 W/m 10,7 C 13,9 C 0,0 km/h (0 Bft)
22.08.2017 10:00 21,9 C 16,8 C 50 % 67 % 1021,9 hPa 0,0 l/m 0,5 km/h (0 Bft) N 1,00 h 2,9 UV-I 584 W/m 10,6 C 16,8 C 1,0 km/h (0 Bft)
22.08.2017 11:00 22,4 C 18,2 C 45 % 57 % 1021,4 hPa 0,0 l/m 1,8 km/h (1 Bft) W-NW 1,00 h 3,1 UV-I 536 W/m 9,5 C 18,2 C 4,0 km/h (1 Bft)
22.08.2017 12:00 22,3 C 18,3 C 46 % 57 % 1021,1 hPa 0,0 l/m 2,9 km/h (1 Bft) W-SW 1,00 h 3,4 UV-I 504 W/m 9,6 C 18,2 C 6,5 km/h (2 Bft)
22.08.2017 13:00 22,5 C 19,9 C 44 % 51 % 1020,6 hPa 0,0 l/m 4,3 km/h (1 Bft) W-NW 1,00 h 4,3 UV-I 675 W/m 9,4 C 19,7 C 9,7 km/h (2 Bft)
22.08.2017 14:00 22,6 C 19,2 C 43 % 51 % 1020,3 hPa 0,0 l/m 2,6 km/h (1 Bft) NW 1,00 h 2,5 UV-I 268 W/m 8,8 C 19,1 C 6,4 km/h (2 Bft)
22.08.2017 15:00 22,4 C 19,1 C 43 % 52 % 1019,8 hPa 0,0 l/m 1,7 km/h (1 Bft) N 1,00 h 2,3 UV-I 268 W/m 9,1 C 19,1 C 4,7 km/h (1 Bft)
22.08.2017 16:00 22,4 C 20,3 C 43 % 48 % 1019,4 hPa 0,0 l/m 4,3 km/h (1 Bft) W-NW 1,00 h 2,0 UV-I 445 W/m 8,8 C 20,1 C 9,1 km/h (2 Bft)
22.08.2017 17:00 22,7 C 20,2 C 42 % 48 % 1019,1 hPa 0,0 l/m 2,1 km/h (1 Bft) W-NW 0,75 h 1,1 UV-I 262 W/m 8,9 C 20,2 C 5,5 km/h (1 Bft)
22.08.2017 18:00 22,1 C 18,4 C 45 % 56 % 1019,0 hPa 0,0 l/m 0,6 km/h (0 Bft) N 0,00 h 0,5 UV-I 73 W/m 9,6 C 18,4 C 2,6 km/h (1 Bft)
22.08.2017 19:00 23,0 C 17,4 C 49 % 62 % 1019,1 hPa 0,0 l/m 0,2 km/h (0 Bft) NW 0,00 h 0,0 UV-I 36 W/m 10,0 C 17,4 C 0,7 km/h (0 Bft)
22.08.2017 20:00 23,4 C 15,9 C 49 % 69 % 1019,3 hPa 0,0 l/m 0,0 km/h (0 Bft) N 0,00 h 0,0 UV-I 10 W/m 10,2 C 15,9 C 0,0 km/h (0 Bft)
22.08.2017 21:00 23,5 C 13,7 C 50 % 76 % 1019,5 hPa 0,0 l/m 0,5 km/h (0 Bft) N 0,00 h 0,0 UV-I 0 W/m 9,6 C 13,7 C 1,5 km/h (1 Bft)
22.08.2017 22:00 23,5 C 11,6 C 51 % 86 % 1019,6 hPa 0,0 l/m 0,0 km/h (0 Bft) N 0,00 h 0,0 UV-I 0 W/m 9,4 C 11,6 C 0,0 km/h (0 Bft)
22.08.2017 23:00 23,3 C 10,4 C 52 % 89 % 1019,7 hPa 0,0 l/m 0,0 km/h (0 Bft) N 0,00 h 0,0 UV-I 0 W/m 8,7 C 10,4 C 0,0 km/h (0 Bft)
23.08.2017 00:00 23,3 C 9,8 C 53 % 92 % 1019,7 hPa 0,0 l/m 0,0 km/h (0 Bft) N 0,00 h 0,0 UV-I 0 W/m 8,5 C 9,8 C 0,0 km/h (0 Bft)
23.08.2017 01:00 23,2 C 9,3 C 54 % 92 % 1019,7 hPa 0,0 l/m 0,0 km/h (0 Bft) N 0,00 h 0,0 UV-I 0 W/m 8,1 C 9,3 C 0,0 km/h (0 Bft)
23.08.2017 02:00 23,2 C 8,5 C 55 % 93 % 1019,6 hPa 0,0 l/m 0,0 km/h (0 Bft) N 0,00 h 0,0 UV-I 0 W/m 7,5 C 8,5 C 0,0 km/h (0 Bft)
23.08.2017 03:00 23,1 C 7,8 C 55 % 94 % 1019,5 hPa 0,0 l/m 0,0 km/h (0 Bft) N 0,00 h 0,0 UV-I 0 W/m 6,9 C 7,8 C 0,0 km/h (0 Bft)
23.08.2017 04:00 23,1 C 7,2 C 56 % 94 % 1019,4 hPa 0,0 l/m 0,0 km/h (0 Bft) N 0,00 h 0,0 UV-I 0 W/m 6,3 C 7,2 C 0,0 km/h (0 Bft)
23.08.2017 05:00 23,1 C 6,8 C 56 % 94 % 1019,4 hPa 0,0 l/m 0,0 km/h (0 Bft) N 0,00 h 0,0 UV-I 0 W/m 5,9 C 6,8 C 0,0 km/h (0 Bft)
23.08.2017 06:00 23,0 C 6,2 C 57 % 93 % 1019,5 hPa 0,0 l/m 0,0 km/h (0 Bft) N 0,00 h 0,0 UV-I 14 W/m 5,2 C 6,2 C 0,0 km/h (0 Bft)
23.08.2017 07:00 22,9 C 6,7 C 57 % 94 % 1019,5 hPa 0,0 l/m 0,0 km/h (0 Bft) N 0,35 h 0,5 UV-I 117 W/m 5,8 C 6,7 C 0,0 km/h (0 Bft)
23.08.2017 08:00 22,9 C 11,1 C 56 % 90 % 1019,4 hPa 0,0 l/m 0,0 km/h (0 Bft) N 1,00 h 0,9 UV-I 317 W/m 9,5 C 11,1 C 0,0 km/h (0 Bft)
23.08.2017 09:00 22,3 C 15,6 C 53 % 78 % 1019,2 hPa 0,0 l/m 0,0 km/h (0 Bft) N 1,00 h 1,9 UV-I 492 W/m 11,7 C 15,6 C 0,0 km/h (0 Bft)
23.08.2017 10:00 22,5 C 18,3 C 50 % 62 % 1019,0 hPa 0,0 l/m 0,3 km/h (0 Bft) SO 1,00 h 3,2 UV-I 631 W/m 10,7 C 18,3 C 0,8 km/h (0 Bft)
23.08.2017 11:00 23,4 C 20,1 C 47 % 54 % 1018,8 hPa 0,0 l/m 1,1 km/h (1 Bft) W-NW 1,00 h 4,4 UV-I 738 W/m 10,4 C 20,1 C 2,7 km/h (1 Bft)
23.08.2017 12:00 23,7 C 20,8 C 46 % 50 % 1018,6 hPa 0,0 l/m 0,6 km/h (0 Bft) W-SW 1,00 h 5,3 UV-I 785 W/m 9,9 C 20,8 C 2,4 km/h (1 Bft)
23.08.2017 13:00 23,6 C 21,9 C 43 % 45 % 1018,3 hPa 0,0 l/m 0,9 km/h (0 Bft) W-NW 1,00 h 5,5 UV-I 790 W/m 9,6 C 21,9 C 3,3 km/h (1 Bft)
23.08.2017 14:00 23,4 C 22,3 C 42 % 42 % 1017,8 hPa 0,0 l/m 2,3 km/h (1 Bft) W 1,00 h 4,9 UV-I 741 W/m 8,8 C 22,3 C 5,2 km/h (1 Bft)
23.08.2017 15:00 23,4 C 22,8 C 42 % 43 % 1017,5 hPa 0,0 l/m 1,5 km/h (1 Bft) W 1,00 h 3,7 UV-I 644 W/m 9,5 C 22,8 C 4,3 km/h (1 Bft)
23.08.2017 16:00 23,5 C 23,1 C 42 % 41 % 1017,3 hPa 0,0 l/m 0,8 km/h (0 Bft) W-SW 1,00 h 2,5 UV-I 521 W/m 9,1 C 23,1 C 2,7 km/h (1 Bft)
23.08.2017 17:00 23,4 C 22,9 C 41 % 40 % 1017,0 hPa 0,0 l/m 1,2 km/h (1 Bft) W-SW 1,00 h 1,4 UV-I 361 W/m 8,4 C 22,9 C 3,5 km/h (1 Bft)
23.08.2017 18:00 23,2 C 22,0 C 40 % 40 % 1016,8 hPa 0,0 l/m 0,6 km/h (0 Bft) W-SW 0,43 h 0,7 UV-I 122 W/m 7,7 C 22,0 C 2,3 km/h (1 Bft)
23.08.2017 19:00 23,2 C 20,4 C 44 % 47 % 1016,7 hPa 0,0 l/m 0,0 km/h (0 Bft) N 0,00 h 0,0 UV-I 22 W/m 8,7 C 20,4 C 0,8 km/h (0 Bft)
23.08.2017 20:00 23,6 C 17,2 C 46 % 63 % 1016,9 hPa 0,0 l/m 0,0 km/h (0 Bft) N 0,00 h 0,0 UV-I 5 W/m 10,0 C 17,2 C 0,0 km/h (0 Bft)
23.08.2017 21:00 23,5 C 14,5 C 47 % 76 % 1017,2 hPa 0,0 l/m 0,2 km/h (0 Bft) NO 0,00 h 0,0 UV-I 0 W/m 10,3 C 14,5 C 0,6 km/h (0 Bft)
23.08.2017 22:00 23,4 C 12,9 C 49 % 82 % 1017,2 hPa 0,0 l/m 0,0 km/h (0 Bft) N 0,00 h 0,0 UV-I 0 W/m 9,8 C 12,9 C 0,1 km/h (0 Bft)
23.08.2017 23:00 23,4 C 11,8 C 50 % 86 % 1017,2 hPa 0,0 l/m 0,0 km/h (0 Bft) N 0,00 h 0,0 UV-I 0 W/m 9,5 C 11,8 C 0,0 km/h (0 Bft)
24.08.2017 00:00 23,4 C 10,9 C 51 % 89 % 1017,2 hPa 0,0 l/m 0,0 km/h (0 Bft) N 0,00 h 0,0 UV-I 0 W/m 9,1 C 10,9 C 0,0 km/h (0 Bft)
24.08.2017 01:00 23,3 C 10,3 C 52 % 90 % 1017,0 hPa 0,0 l/m 0,0 km/h (0 Bft) N 0,00 h 0,0 UV-I 0 W/m 8,8 C 10,3 C 0,0 km/h (0 Bft)
24.08.2017 02:00 22,8 C 9,9 C 53 % 91 % 1016,9 hPa 0,0 l/m 0,0 km/h (0 Bft) N 0,00 h 0,0 UV-I 0 W/m 8,5 C 9,9 C 0,0 km/h (0 Bft)
24.08.2017 03:00 23,0 C 9,7 C 54 % 91 % 1016,7 hPa 0,0 l/m 0,0 km/h (0 Bft) N 0,00 h 0,0 UV-I 0 W/m 8,3 C 9,7 C 0,0 km/h (0 Bft)
24.08.2017 04:00 23,1 C 9,4 C 54 % 91 % 1016,4 hPa 0,0 l/m 0,0 km/h (0 Bft) N 0,00 h 0,0 UV-I 0 W/m 8,0 C 9,4 C 0,0 km/h (0 Bft)
24.08.2017 05:00 23,1 C 9,2 C 54 % 92 % 1016,2 hPa 0,0 l/m 0,0 km/h (0 Bft) S-SW 0,00 h 0,0 UV-I 0 W/m 8,0 C 9,2 C 0,0 km/h (0 Bft)
24.08.2017 13:00 23,7 C 23,7 C 55 % 64 % 1016,1 hPa 0,0 l/m 4,3 km/h (1 Bft) S 1,18 h 4,0 UV-I 501 W/m 16,3 C 23,6 C 9,8 km/h (2 Bft)
24.08.2017 14:00 23,7 C 23,9 C 56 % 64 % 1016,2 hPa 0,0 l/m 6,2 km/h (2 Bft) SW 0,95 h 2,6 UV-I 332 W/m 16,6 C 23,6 C 11,8 km/h (2 Bft)
24.08.2017 15:00 23,8 C 23,4 C 58 % 69 % 1016,0 hPa 0,0 l/m 4,4 km/h (1 Bft) W 1,00 h 1,9 UV-I 256 W/m 17,3 C 23,2 C 9,9 km/h (2 Bft)
24.08.2017 16:00 23,8 C 24,2 C 60 % 67 % 1015,9 hPa 0,0 l/m 2,7 km/h (1 Bft) W 0,80 h 1,9 UV-I 309 W/m 17,6 C 24,1 C 7,0 km/h (2 Bft)
24.08.2017 17:00 23,8 C 23,7 C 60 % 67 % 1015,7 hPa 0,0 l/m 2,2 km/h (1 Bft) W-SW 0,35 h 0,8 UV-I 146 W/m 17,3 C 23,7 C 6,0 km/h (2 Bft)
24.08.2017 18:00 23,8 C 23,4 C 60 % 66 % 1015,6 hPa 0,0 l/m 2,3 km/h (1 Bft) W 0,00 h 0,6 UV-I 91 W/m 16,6 C 23,4 C 6,5 km/h (2 Bft)
24.08.2017 19:00 23,9 C 22,4 C 61 % 69 % 1015,8 hPa 0,0 l/m 1,4 km/h (1 Bft) W 0,00 h 0,0 UV-I 36 W/m 16,4 C 22,4 C 4,6 km/h (1 Bft)
24.08.2017 20:00 24,0 C 20,8 C 61 % 71 % 1016,4 hPa 0,0 l/m 0,1 km/h (0 Bft) W-NW 0,00 h 0,0 UV-I 6 W/m 15,4 C 20,8 C 1,2 km/h (1 Bft)
24.08.2017 21:00 23,8 C 18,9 C 60 % 76 % 1016,8 hPa 0,0 l/m 0,0 km/h (0 Bft) N 0,00 h 0,0 UV-I 0 W/m 14,5 C 18,9 C 0,0 km/h (0 Bft)
24.08.2017 22:00 23,9 C 16,7 C 61 % 85 % 1017,6 hPa 0,0 l/m 0,0 km/h (0 Bft) N 0,00 h 0,0 UV-I 0 W/m 14,2 C 16,7 C 0,0 km/h (0 Bft)
24.08.2017 23:00 24,0 C 16,2 C 62 % 87 % 1018,0 hPa 0,0 l/m 0,0 km/h (0 Bft) N 0,00 h 0,0 UV-I 0 W/m 14,0 C 16,2 C 0,0 km/h (0 Bft)
25.08.2017 00:00 24,0 C 14,8 C 63 % 91 % 1018,0 hPa 0,0 l/m 0,0 km/h (0 Bft) N 0,00 h 0,0 UV-I 0 W/m 13,3 C 14,8 C 0,0 km/h (0 Bft)
25.08.2017 01:00 23,9 C 13,8 C 63 % 93 % 1018,2 hPa 0,0 l/m 0,0 km/h (0 Bft) N 0,00 h 0,0 UV-I 0 W/m 12,7 C 13,8 C 0,0 km/h (0 Bft)
25.08.2017 02:00 23,9 C 13,8 C 63 % 93 % 1018,3 hPa 0,0 l/m 0,0 km/h (0 Bft) N 0,00 h 0,0 UV-I 0 W/m 12,7 C 13,8 C 0,0 km/h (0 Bft)
25.08.2017 03:00 23,9 C 13,1 C 63 % 93 % 1018,2 hPa 0,0 l/m 0,0 km/h (0 Bft) N 0,00 h 0,0 UV-I 0 W/m 12,0 C 13,1 C 0,0 km/h (0 Bft)
25.08.2017 04:00 23,8 C 12,9 C 62 % 94 % 1018,1 hPa 0,0 l/m 0,0 km/h (0 Bft) N 0,00 h 0,0 UV-I 0 W/m 11,9 C 12,9 C 0,0 km/h (0 Bft)
25.08.2017 05:00 23,7 C 12,8 C 62 % 94 % 1017,9 hPa 0,0 l/m 0,0 km/h (0 Bft) N 0,00 h 0,0 UV-I 0 W/m 11,9 C 12,8 C 0,0 km/h (0 Bft)
25.08.2017 06:00 23,6 C 12,4 C 62 % 93 % 1018,1 hPa 0,0 l/m 0,0 km/h (0 Bft) N 0,00 h 0,0 UV-I 14 W/m 11,4 C 12,4 C 0,0 km/h (0 Bft)
25.08.2017 07:00 23,5 C 12,7 C 62 % 94 % 1018,1 hPa 0,0 l/m 0,0 km/h (0 Bft) N 0,00 h 0,5 UV-I 68 W/m 11,8 C 12,7 C 0,0 km/h (0 Bft)
25.08.2017 08:00 23,6 C 15,4 C 61 % 88 % 1018,3 hPa 0,0 l/m 0,0 km/h (0 Bft) N 0,87 h 0,8 UV-I 243 W/m 13,4 C 15,4 C 0,1 km/h (0 Bft)
25.08.2017 09:00 23,0 C 18,9 C 60 % 78 % 1018,4 hPa 0,0 l/m 1,4 km/h (1 Bft) SW 1,00 h 1,7 UV-I 402 W/m 15,1 C 18,9 C 3,1 km/h (1 Bft)
25.08.2017 10:00 23,7 C 21,3 C 60 % 73 % 1018,3 hPa 0,0 l/m 2,6 km/h (1 Bft) W-SW 1,00 h 2,7 UV-I 550 W/m 16,2 C 21,3 C 6,5 km/h (2 Bft)
25.08.2017 11:00 24,1 C 23,3 C 60 % 68 % 1018,0 hPa 0,0 l/m 1,8 km/h (1 Bft) W 1,00 h 3,9 UV-I 655 W/m 17,1 C 23,3 C 4,6 km/h (1 Bft)
25.08.2017 12:00 24,2 C 24,6 C 60 % 62 % 1017,7 hPa 0,0 l/m 1,9 km/h (1 Bft) W 1,00 h 4,6 UV-I 710 W/m 16,8 C 24,6 C 5,2 km/h (1 Bft)
25.08.2017 13:00 24,2 C 26,0 C 59 % 57 % 1017,3 hPa 0,0 l/m 2,1 km/h (1 Bft) W-SW 1,00 h 4,8 UV-I 730 W/m 16,9 C 26,0 C 6,1 km/h (2 Bft)
25.08.2017 14:00 24,3 C 26,0 C 60 % 58 % 1017,2 hPa 0,0 l/m 1,5 km/h (1 Bft) S 1,00 h 3,5 UV-I 521 W/m 17,1 C 26,0 C 4,4 km/h (1 Bft)
25.08.2017 15:00 24,4 C 26,1 C 60 % 57 % 1016,9 hPa 0,0 l/m 1,3 km/h (1 Bft) S 1,00 h 2,4 UV-I 347 W/m 16,9 C 26,1 C 3,7 km/h (1 Bft)
25.08.2017 16:00 24,4 C 25,9 C 60 % 58 % 1016,6 hPa 0,0 l/m 0,4 km/h (0 Bft) NW 0,67 h 1,3 UV-I 209 W/m 16,9 C 25,9 C 1,5 km/h (1 Bft)
25.08.2017 17:00 24,4 C 25,8 C 60 % 59 % 1016,4 hPa 0,0 l/m 0,0 km/h (0 Bft) N 0,50 h 0,8 UV-I 162 W/m 17,1 C 25,8 C 0,7 km/h (0 Bft)
25.08.2017 18:00 24,4 C 25,5 C 61 % 59 % 1016,0 hPa 0,0 l/m 0,0 km/h (0 Bft) N 0,18 h 0,5 UV-I 110 W/m 17,0 C 25,5 C 0,2 km/h (0 Bft)
25.08.2017 19:00 24,6 C 25,0 C 63 % 61 % 1016,0 hPa 0,0 l/m 0,0 km/h (0 Bft) N 0,00 h 0,0 UV-I 29 W/m 17,0 C 25,0 C 0,1 km/h (0 Bft)
25.08.2017 20:00 24,5 C 22,4 C 62 % 72 % 1016,1 hPa 0,0 l/m 0,0 km/h (0 Bft) N 0,00 h 0,0 UV-I 0 W/m 17,1 C 22,4 C 0,0 km/h (0 Bft)
25.08.2017 21:00 24,4 C 20,3 C 62 % 82 % 1016,2 hPa 0,0 l/m 0,0 km/h (0 Bft) N 0,00 h 0,0 UV-I 0 W/m 17,1 C 20,3 C 0,0 km/h (0 Bft)
25.08.2017 22:00 24,3 C 19,1 C 63 % 86 % 1016,4 hPa 0,0 l/m 0,0 km/h (0 Bft) N 0,00 h 0,0 UV-I 0 W/m 16,7 C 19,1 C 0,0 km/h (0 Bft)
25.08.2017 23:00 24,2 C 18,8 C 63 % 87 % 1017,2 hPa 6,4 l/m 3,1 km/h (1 Bft) NW 0,00 h 0,0 UV-I 0 W/m 16,7 C 18,3 C 6,1 km/h (2 Bft)
26.08.2017 00:00 24,3 C 16,6 C 64 % 92 % 1017,8 hPa 4,0 l/m 0,6 km/h (0 Bft) NW 0,00 h 0,0 UV-I 0 W/m 15,4 C 16,6 C 1,5 km/h (1 Bft)
26.08.2017 01:00 24,4 C 16,3 C 64 % 95 % 1016,4 hPa 0,0 l/m 0,2 km/h (0 Bft) N-NW 0,00 h 0,0 UV-I 0 W/m 15,4 C 16,3 C 0,6 km/h (0 Bft)
26.08.2017 02:00 24,4 C 16,1 C 65 % 95 % 1016,5 hPa 0,0 l/m 0,0 km/h (0 Bft) N 0,00 h 0,0 UV-I 0 W/m 15,3 C 16,1 C 0,0 km/h (0 Bft)
26.08.2017 03:00 24,5 C 16,2 C 65 % 96 % 1017,3 hPa 3,4 l/m 0,5 km/h (0 Bft) W 0,00 h 0,0 UV-I 0 W/m 15,5 C 16,2 C 1,6 km/h (1 Bft)
26.08.2017 04:00 24,6 C 16,2 C 64 % 96 % 1017,0 hPa 1,4 l/m 0,7 km/h (0 Bft) O 0,00 h 0,0 UV-I 0 W/m 15,6 C 16,2 C 2,0 km/h (1 Bft)
26.08.2017 05:00 24,6 C 16,1 C 64 % 96 % 1016,1 hPa 0,2 l/m 0,3 km/h (0 Bft) O 0,00 h 0,0 UV-I 0 W/m 15,5 C 16,1 C 0,9 km/h (0 Bft)
26.08.2017 06:00 24,4 C 16,1 C 64 % 96 % 1015,7 hPa 0,2 l/m 0,3 km/h (0 Bft) O-NO 0,00 h 0,0 UV-I 0 W/m 15,6 C 16,1 C 1,1 km/h (1 Bft)
26.08.2017 07:00 24,3 C 16,3 C 65 % 97 % 1015,9 hPa 0,0 l/m 0,1 km/h (0 Bft) SO 0,00 h 0,0 UV-I 32 W/m 15,8 C 16,3 C 0,2 km/h (0 Bft)
26.08.2017 08:00 24,1 C 17,0 C 64 % 97 % 1016,3 hPa 0,0 l/m 2,2 km/h (1 Bft) N-NW 0,42 h 0,7 UV-I 151 W/m 16,5 C 16,9 C 3,9 km/h (1 Bft)
26.08.2017 09:00 24,1 C 19,2 C 65 % 93 % 1016,3 hPa 0,2 l/m 0,5 km/h (0 Bft) O-NO 1,00 h 1,4 UV-I 369 W/m 18,0 C 19,2 C 1,2 km/h (1 Bft)
26.08.2017 10:00 24,3 C 21,6 C 67 % 85 % 1016,3 hPa 0,0 l/m 1,4 km/h (1 Bft) NO 1,00 h 2,5 UV-I 528 W/m 18,9 C 21,6 C 2,8 km/h (1 Bft)
26.08.2017 11:00 24,5 C 23,6 C 67 % 78 % 1016,1 hPa 0,0 l/m 2,7 km/h (1 Bft) N 1,00 h 3,5 UV-I 637 W/m 19,5 C 23,6 C 4,9 km/h (1 Bft)
26.08.2017 12:00 24,8 C 25,1 C 67 % 72 % 1015,5 hPa 0,0 l/m 1,4 km/h (1 Bft) SO 1,00 h 4,3 UV-I 699 W/m 19,8 C 25,1 C 4,0 km/h (1 Bft)
26.08.2017 13:00 24,9 C 26,4 C 67 % 69 % 1015,1 hPa 0,0 l/m 3,8 km/h (1 Bft) S 1,00 h 4,6 UV-I 711 W/m 20,1 C 26,3 C 8,2 km/h (2 Bft)
26.08.2017 14:00 25,2 C 27,3 C 68 % 63 % 1014,7 hPa 0,0 l/m 2,2 km/h (1 Bft) S 1,00 h 4,2 UV-I 684 W/m 19,5 C 27,3 C 6,5 km/h (2 Bft)
26.08.2017 15:00 25,2 C 27,8 C 67 % 60 % 1014,1 hPa 0,0 l/m 2,6 km/h (1 Bft) W-SW 1,00 h 3,1 UV-I 545 W/m 19,4 C 27,7 C 6,0 km/h (2 Bft)
26.08.2017 16:00 25,2 C 28,3 C 66 % 56 % 1013,8 hPa 0,0 l/m 4,2 km/h (1 Bft) W-SW 1,00 h 2,1 UV-I 472 W/m 18,7 C 28,2 C 9,1 km/h (2 Bft)
26.08.2017 17:00 24,9 C 28,0 C 67 % 56 % 1013,4 hPa 0,0 l/m 3,9 km/h (1 Bft) W-SW 1,00 h 1,1 UV-I 307 W/m 18,4 C 28,0 C 8,1 km/h (2 Bft)
26.08.2017 18:00 24,8 C 26,7 C 67 % 59 % 1013,3 hPa 0,0 l/m 1,9 km/h (1 Bft) W 0,33 h 0,6 UV-I 106 W/m 18,0 C 26,7 C 5,1 km/h (1 Bft)
26.08.2017 19:00 24,7 C 25,1 C 66 % 65 % 1013,3 hPa 0,0 l/m 0,7 km/h (0 Bft) W 0,00 h 0,0 UV-I 24 W/m 18,1 C 25,1 C 1,9 km/h (1 Bft)
26.08.2017 20:00 24,7 C 22,0 C 68 % 81 % 1013,5 hPa 0,0 l/m 0,0 km/h (0 Bft) N 0,00 h 0,0 UV-I 0 W/m 18,5 C 22,0 C 0,0 km/h (0 Bft)
26.08.2017 21:00 24,3 C 20,4 C 70 % 88 % 1014,1 hPa 0,0 l/m 0,0 km/h (0 Bft) N 0,00 h 0,0 UV-I 0 W/m 18,3 C 20,4 C 0,0 km/h (0 Bft)
26.08.2017 22:00 24,1 C 19,4 C 70 % 90 % 1014,4 hPa 0,0 l/m 0,0 km/h (0 Bft) N 0,00 h 0,0 UV-I 0 W/m 17,8 C 19,4 C 0,0 km/h (0 Bft)
26.08.2017 23:00 24,1 C 19,0 C 71 % 92 % 1014,7 hPa 0,0 l/m 0,0 km/h (0 Bft) N 0,00 h 0,0 UV-I 0 W/m 17,6 C 19,0 C 0,0 km/h (0 Bft)
27.08.2017 00:00 24,6 C 18,5 C 69 % 91 % 1014,7 hPa 0,0 l/m 0,0 km/h (0 Bft) N 0,00 h 0,0 UV-I 0 W/m 17,0 C 18,5 C 0,0 km/h (0 Bft)
27.08.2017 01:00 24,7 C 17,6 C 69 % 91 % 1014,5 hPa 0,0 l/m 0,0 km/h (0 Bft) N 0,00 h 0,0 UV-I 0 W/m 16,1 C 17,6 C 0,0 km/h (0 Bft)
27.08.2017 02:00 24,7 C 16,6 C 70 % 92 % 1014,2 hPa 0,0 l/m 0,0 km/h (0 Bft) N 0,00 h 0,0 UV-I 0 W/m 15,3 C 16,6 C 0,0 km/h (0 Bft)
27.08.2017 03:00 24,6 C 15,7 C 69 % 92 % 1014,3 hPa 0,0 l/m 0,0 km/h (0 Bft) N 0,00 h 0,0 UV-I 0 W/m 14,4 C 15,7 C 0,0 km/h (0 Bft)
27.08.2017 04:00 24,6 C 14,9 C 68 % 93 % 1014,2 hPa 0,0 l/m 0,0 km/h (0 Bft) N 0,00 h 0,0 UV-I 0 W/m 13,8 C 14,9 C 0,0 km/h (0 Bft)
27.08.2017 05:00 24,6 C 14,4 C 67 % 94 % 1014,3 hPa 0,0 l/m 0,0 km/h (0 Bft) N 0,00 h 0,0 UV-I 0 W/m 13,4 C 14,4 C 0,0 km/h (0 Bft)
27.08.2017 06:00 24,6 C 14,2 C 67 % 94 % 1014,8 hPa 0,0 l/m 0,0 km/h (0 Bft) N 0,00 h 0,0 UV-I 12 W/m 13,3 C 14,2 C 0,0 km/h (0 Bft)
27.08.2017 07:00 24,4 C 14,7 C 68 % 96 % 1015,2 hPa 0,0 l/m 0,0 km/h (0 Bft) N 0,00 h 0,0 UV-I 27 W/m 14,0 C 14,7 C 0,0 km/h (0 Bft)
27.08.2017 08:00 24,5 C 16,5 C 68 % 96 % 1015,5 hPa 0,0 l/m 0,0 km/h (0 Bft) N 0,02 h 0,5 UV-I 91 W/m 15,8 C 16,5 C 0,0 km/h (0 Bft)
27.08.2017 09:00 24,2 C 18,8 C 68 % 92 % 1015,7 hPa 0,0 l/m 0,0 km/h (0 Bft) N 0,87 h 1,3 UV-I 234 W/m 17,5 C 18,8 C 0,1 km/h (0 Bft)
27.08.2017 10:00 23,8 C 21,0 C 67 % 83 % 1015,8 hPa 0,0 l/m 0,4 km/h (0 Bft) SW 1,00 h 2,1 UV-I 343 W/m 17,9 C 21,0 C 0,8 km/h (0 Bft)
27.08.2017 11:00 24,3 C 22,3 C 64 % 73 % 1015,6 hPa 0,0 l/m 1,8 km/h (1 Bft) N 1,00 h 3,1 UV-I 439 W/m 17,2 C 22,3 C 3,4 km/h (1 Bft)
27.08.2017 12:00 24,5 C 24,0 C 60 % 61 % 1015,8 hPa 0,0 l/m 2,3 km/h (1 Bft) NW 1,00 h 4,5 UV-I 696 W/m 16,0 C 23,9 C 5,4 km/h (1 Bft)
27.08.2017 13:00 24,7 C 24,4 C 58 % 57 % 1015,7 hPa 0,0 l/m 2,1 km/h (1 Bft) NW 1,00 h 3,9 UV-I 512 W/m 15,4 C 24,4 C 5,3 km/h (1 Bft)
27.08.2017 14:00 24,8 C 25,1 C 60 % 56 % 1015,6 hPa 0,0 l/m 2,2 km/h (1 Bft) NW 1,00 h 3,6 UV-I 547 W/m 15,7 C 25,1 C 5,8 km/h (2 Bft)
27.08.2017 15:00 24,9 C 24,4 C 59 % 58 % 1015,4 hPa 0,0 l/m 1,8 km/h (1 Bft) N-NW 0,83 h 2,2 UV-I 342 W/m 15,7 C 24,4 C 4,2 km/h (1 Bft)
27.08.2017 16:00 24,9 C 23,9 C 58 % 59 % 1015,2 hPa 0,0 l/m 1,7 km/h (1 Bft) NW 0,32 h 1,3 UV-I 149 W/m 15,5 C 23,9 C 4,0 km/h (1 Bft)
27.08.2017 17:00 24,7 C 23,6 C 56 % 61 % 1015,4 hPa 0,0 l/m 4,0 km/h (1 Bft) NW 0,25 h 0,7 UV-I 139 W/m 15,6 C 23,5 C 8,9 km/h (2 Bft)
27.08.2017 18:00 24,5 C 22,5 C 57 % 67 % 1015,4 hPa 0,0 l/m 4,3 km/h (1 Bft) N 0,03 h 0,5 UV-I 81 W/m 16,0 C 22,2 C 9,0 km/h (2 Bft)
27.08.2017 19:00 24,2 C 20,7 C 60 % 73 % 1015,9 hPa 0,0 l/m 2,9 km/h (1 Bft) N-NW 0,00 h 0,0 UV-I 25 W/m 15,7 C 20,6 C 6,1 km/h (2 Bft)
27.08.2017 20:00 24,2 C 19,1 C 62 % 78 % 1016,8 hPa 0,0 l/m 0,0 km/h (0 Bft) N 0,00 h 0,0 UV-I 0 W/m 15,2 C 19,1 C 0,0 km/h (0 Bft)
27.08.2017 21:00 24,0 C 18,0 C 62 % 82 % 1017,4 hPa 0,0 l/m 0,0 km/h (0 Bft) N 0,00 h 0,0 UV-I 0 W/m 14,8 C 18,0 C 0,0 km/h (0 Bft)
27.08.2017 22:00 23,9 C 17,6 C 62 % 82 % 1017,9 hPa 0,0 l/m 0,0 km/h (0 Bft) N 0,00 h 0,0 UV-I 0 W/m 14,5 C 17,6 C 0,0 km/h (0 Bft)
27.08.2017 23:00 24,5 C 17,5 C 63 % 81 % 1018,0 hPa 0,0 l/m 0,0 km/h (0 Bft) N 0,00 h 0,0 UV-I 0 W/m 14,2 C 17,5 C 0,0 km/h (0 Bft)
Min-Datum _ 22.08.17 23.08.17 23.08.17 23.08.17 26.08.17 - 21.08.17 - - - - 23.08.17 23.08.17 21.08.17
_ Min-Zeit 10:18 06:54 17:19 17:50 18:08 - 00:00 - - - - 06:46 06:55 00:00
Minimum _ 21,7 C 5,9 C 39 % 37 % 1013,2 hPa - 0,0 km/h (0 Bft) - - - - 5,0 C 5,9 C 0,0 km/h (0 Bft)
Max-Datum _ 26.08.17 26.08.17 26.08.17 26.08.17 21.08.17 25.08.17 25.08.17 - 24.08.17 27.08.17 27.08.17 26.08.17 26.08.17 25.08.17
_ Max-Zeit 16:35 16:44 21:58 06:37 07:39 23:56 23:57 - 13:48 13:09 13:52 13:03 16:45 23:49
Maximum _ 25,3 C 28,7 C 71 % 97 % 1023,6 hPa 6,4 l/m 20,9 km/h
NW (4 Bft)
- 1,00 h 5,7 UV-I 976 W/m 21,7 C 28,7 C 35,4 km/h
W-NW (5 Bft)
Durchschnitt _ 23,7 C 17,1 C 57 % 77 % 1018,2 hPa #15,8 l/m 1,0 km/h (0 Bft) W #61:00 h 2,3 UV-I 322 W/m 12,5 C 17,0 C 2,3 km/h (1 Bft)